Time;durP1;ratioP1;P1;durP2;ratioP2;P2;SDS_P1;SDS_P2;PMS_P1;PMS_P2;Temp;Humidity;BMP_temperature;BMP_pressure;BME280_temperature;BME280_humidity;BME280_pressure;Samples;Min_cycle;Max_cycle;Signal;HPM_P1;HPM_P2
2021/12/17 00:01:17;;;;;;;6.50;1.85;;;24.60;99.90;;;;;;4955297;28;20236;-88
2021/12/17 00:03:51;;;;;;;4.18;1.33;;;24.50;99.90;;;;;;4962502;28;20235;-88
2021/12/17 00:06:42;;;;;;;8.27;1.83;;;24.50;99.90;;;;;;4942016;28;20250;-91
2021/12/17 00:09:13;;;;;;;7.47;1.80;;;24.40;99.90;;;;;;4943107;28;20232;-90
2021/12/17 00:11:45;;;;;;;7.43;1.88;;;24.50;99.90;;;;;;4935609;28;20702;-89
2021/12/17 00:14:26;;;;;;;6.07;1.67;;;24.50;99.90;;;;;;4947968;28;20195;-92
2021/12/17 00:17:04;;;;;;;4.35;1.45;;;24.40;99.90;;;;;;4948581;28;20215;-92
2021/12/17 00:19:51;;;;;;;9.00;2.47;;;24.30;99.90;;;;;;4946414;28;20200;-92
2021/12/17 00:50:29;;;;;;;6.97;1.75;;;24.30;99.90;;;;;;4938323;28;20243;-91
2021/12/17 00:53:01;;;;;;;9.10;2.20;;;24.30;99.90;;;;;;4939813;28;20412;-89
2021/12/17 00:55:32;;;;;;;5.43;1.90;;;24.30;99.90;;;;;;4951230;28;20558;-90
2021/12/17 00:58:08;;;;;;;5.57;1.75;;;24.30;99.90;;;;;;4945228;28;20255;-90
2021/12/17 01:00:40;;;;;;;8.18;2.00;;;24.40;99.90;;;;;;4944792;28;20243;-89
2021/12/17 01:03:11;;;;;;;7.57;1.80;;;24.50;99.90;;;;;;4955363;28;20200;-89
2021/12/17 01:05:45;;;;;;;6.47;1.85;;;24.50;99.90;;;;;;4945148;28;20227;-88
2021/12/17 01:08:17;;;;;;;8.18;2.30;;;24.60;99.90;;;;;;4962411;28;20620;-91
2021/12/17 01:10:53;;;;;;;9.07;2.08;;;24.70;99.90;;;;;;4938899;28;20203;-90
2021/12/17 01:13:25;;;;;;;8.20;2.15;;;24.70;99.90;;;;;;4959279;28;20210;-90
2021/12/17 01:15:56;;;;;;;8.07;1.80;;;24.80;99.90;;;;;;4958114;28;20234;-90
2021/12/17 01:18:40;;;;;;;11.90;2.10;;;24.90;99.90;;;;;;4980387;28;20418;-90
2021/12/17 01:24:32;;;;;;;8.70;2.20;;;24.80;99.90;;;;;;4939902;28;20211;-91
2021/12/17 01:35:28;;;;;;;10.73;2.30;;;24.50;99.90;;;;;;4976531;28;20322;-90
2021/12/17 01:41:04;;;;;;;8.95;1.88;;;24.60;99.90;;;;;;4975511;28;20197;-93
2021/12/17 01:43:40;;;;;;;7.03;1.58;;;24.70;99.90;;;;;;4976124;28;20187;-92
2021/12/17 01:46:13;;;;;;;9.77;2.15;;;24.80;99.90;;;;;;4976616;28;20245;-92
2021/12/17 01:49:01;;;;;;;7.30;1.92;;;24.90;99.90;;;;;;4976170;28;20230;-92
2021/12/17 02:00:05;;;;;;;5.47;1.65;;;25.20;99.90;;;;;;4977581;28;20268;-90
2021/12/17 02:02:42;;;;;;;8.48;1.73;;;25.30;99.90;;;;;;4976783;28;20249;-91
2021/12/17 02:05:17;;;;;;;8.75;2.05;;;25.10;99.90;;;;;;4978301;28;20187;-92
2021/12/17 02:07:54;;;;;;;10.65;2.25;;;25.10;99.90;;;;;;4979283;28;20230;-91
2021/12/17 02:22:11;;;;;;;8.43;1.65;;;25.70;99.90;;;;;;4978084;28;20190;-91
2021/12/17 02:33:01;;;;;;;5.13;1.35;;;25.80;99.90;;;;;;4996072;28;20243;-86
2021/12/17 02:35:39;;;;;;;7.25;1.50;;;26.00;99.90;;;;;;4990413;28;20218;-92
2021/12/17 02:38:15;;;;;;;7.35;1.58;;;26.10;99.90;;;;;;4977720;28;20199;-90
2021/12/17 02:46:19;;;;;;;7.05;1.58;;;26.40;99.90;;;;;;4961622;28;20277;-92
2021/12/17 02:48:52;;;;;;;6.20;1.80;;;26.40;99.90;;;;;;4974532;28;20257;-92
2021/12/17 02:51:23;;;;;;;4.78;1.45;;;26.50;99.90;;;;;;4974739;28;20184;-92
2021/12/17 02:53:59;;;;;;;8.63;1.60;;;26.70;99.90;;;;;;4987510;28;20253;-92
2021/12/17 02:56:30;;;;;;;5.65;1.58;;;26.80;99.90;;;;;;4993967;28;20202;-92
2021/12/17 02:59:02;;;;;;;6.95;1.60;;;26.90;99.90;;;;;;4994104;28;20666;-92
2021/12/17 03:01:33;;;;;;;5.47;1.83;;;27.10;99.90;;;;;;4993918;28;20206;-91
2021/12/17 03:04:07;;;;;;;5.45;1.50;;;27.30;99.90;;;;;;4957634;28;20204;-92
2021/12/17 03:06:40;;;;;;;4.60;1.73;;;27.40;99.90;;;;;;4965105;28;20315;-92
2021/12/17 03:09:17;;;;;;;5.78;1.40;;;27.30;99.90;;;;;;4955289;29;20212;-92
2021/12/17 03:11:49;;;;;;;4.47;1.38;;;27.20;99.90;;;;;;4955962;29;20558;-92
2021/12/17 03:14:20;;;;;;;4.22;1.65;;;27.20;99.90;;;;;;4958356;29;20209;-91
2021/12/17 03:17:05;;;;;;;3.88;1.20;;;27.30;99.90;;;;;;4957887;29;20663;-93
2021/12/17 03:28:48;;;;;;;4.45;1.48;;;27.00;99.90;;;;;;4878587;29;20609;-95
2021/12/17 03:31:29;;;;;;;4.43;1.40;;;26.90;99.90;;;;;;4929835;29;20205;-93
2021/12/17 03:34:16;;;;;;;7.90;1.50;;;27.00;99.90;;;;;;4926851;29;20667;-96
2021/12/17 03:36:53;;;;;;;5.97;1.20;;;27.00;99.90;;;;;;4947891;29;20208;-96
2021/12/17 03:39:30;;;;;;;4.55;1.30;;;27.10;99.90;;;;;;4944068;29;20207;-96
2021/12/17 03:42:03;;;;;;;6.30;1.58;;;27.10;99.90;;;;;;4948419;28;20285;-89
2021/12/17 03:44:54;;;;;;;5.70;1.35;;;27.10;99.90;;;;;;4963503;28;20208;-96
2021/12/17 03:47:27;;;;;;;4.88;1.30;;;27.20;99.90;;;;;;4959683;29;20240;-91
2021/12/17 03:50:02;;;;;;;6.35;1.20;;;27.20;99.90;;;;;;4978087;28;20192;-91
2021/12/17 03:52:35;;;;;;;5.30;1.30;;;27.20;99.90;;;;;;4952311;28;20205;-96
2021/12/17 03:55:07;;;;;;;7.60;1.65;;;27.20;99.90;;;;;;4958633;28;20235;-95
2021/12/17 03:57:40;;;;;;;6.80;1.55;;;27.30;99.90;;;;;;4959070;29;20582;-92
2021/12/17 04:00:17;;;;;;;7.35;1.60;;;27.30;99.90;;;;;;4954028;29;20231;-91
2021/12/17 04:02:50;;;;;;;8.07;1.83;;;27.20;99.90;;;;;;4958547;28;20279;-90
2021/12/17 04:05:20;;;;;;;6.43;1.45;;;27.20;99.90;;;;;;4958920;29;20251;-87
2021/12/17 04:07:51;;;;;;;7.50;1.60;;;27.20;99.90;;;;;;4958787;28;20290;-91
2021/12/17 04:10:25;;;;;;;7.70;1.58;;;27.20;99.90;;;;;;4956694;28;20603;-91
2021/12/17 04:12:59;;;;;;;5.55;1.63;;;27.20;99.90;;;;;;4957805;29;20668;-89
2021/12/17 04:15:36;;;;;;;4.35;1.52;;;27.30;99.90;;;;;;4957655;28;20204;-89
2021/12/17 04:18:11;;;;;;;4.60;1.48;;;27.20;99.90;;;;;;4956894;29;20246;-89
2021/12/17 04:20:43;;;;;;;2.67;1.30;;;27.30;99.90;;;;;;4956394;29;20199;-90
2021/12/17 04:23:15;;;;;;;8.00;1.77;;;27.30;99.90;;;;;;4938865;29;20212;-94
2021/12/17 04:25:47;;;;;;;4.93;1.50;;;27.30;99.90;;;;;;4940797;28;20223;-90
2021/12/17 04:28:18;;;;;;;5.78;1.50;;;27.40;99.90;;;;;;4954031;28;20214;-87
2021/12/17 04:30:54;;;;;;;5.55;1.67;;;27.50;99.90;;;;;;4958902;28;20219;-89
2021/12/17 04:33:25;;;;;;;6.78;1.70;;;27.60;99.90;;;;;;4976057;28;20187;-90
2021/12/17 04:35:57;;;;;;;6.38;1.90;;;27.70;99.90;;;;;;4971423;28;20598;-89
2021/12/17 04:38:28;;;;;;;8.40;1.45;;;27.80;99.90;;;;;;4976939;28;20217;-89
2021/12/17 04:41:35;;;;;;;5.55;1.73;;;27.80;99.90;;;;;;4965356;28;20323;-88
2021/12/17 04:44:02;;;;;;;5.40;1.70;;;27.80;99.90;;;;;;4957902;28;20196;-91
2021/12/17 04:46:41;;;;;;;5.10;1.58;;;27.80;99.90;;;;;;4958787;29;20196;-89
2021/12/17 04:57:34;;;;;;;8.63;1.88;;;27.90;99.90;;;;;;4956134;28;20578;-88
2021/12/17 05:00:09;;;;;;;7.15;1.60;;;27.80;99.90;;;;;;4966470;28;20265;-86
2021/12/17 05:02:48;;;;;;;10.07;1.80;;;27.90;99.90;;;;;;4976342;28;20600;-88
2021/12/17 05:05:21;;;;;;;3.95;1.30;;;28.00;99.90;;;;;;4984262;28;20211;-89
2021/12/17 05:07:56;;;;;;;5.55;1.40;;;28.20;99.90;;;;;;4947300;29;20231;-89
2021/12/17 05:10:43;;;;;;;6.53;1.60;;;28.40;99.90;;;;;;4958244;28;20278;-92
2021/12/17 05:18:57;;;;;;;5.28;1.50;;;28.60;99.90;;;;;;4957418;28;20190;-91
2021/12/17 05:21:28;;;;;;;5.57;1.55;;;28.70;99.90;;;;;;4954537;29;20214;-90
2021/12/17 05:23:59;;;;;;;6.57;1.50;;;28.80;99.90;;;;;;4956279;29;20215;-90
2021/12/17 05:26:30;;;;;;;6.07;1.85;;;29.00;99.90;;;;;;4956505;29;20239;-92
2021/12/17 05:29:01;;;;;;;6.43;1.40;;;29.00;99.90;;;;;;4956014;29;20204;-86
2021/12/17 05:31:32;;;;;;;5.47;1.55;;;29.20;99.90;;;;;;4945534;28;20223;-86
2021/12/17 05:34:07;;;;;;;4.97;1.50;;;29.10;99.90;;;;;;4944542;29;20200;-86
2021/12/17 05:36:38;;;;;;;4.95;1.30;;;29.30;99.90;;;;;;4952773;28;20232;-85
2021/12/17 05:39:12;;;;;;;7.00;1.55;;;29.40;99.90;;;;;;4954073;28;20242;-89
2021/12/17 05:41:43;;;;;;;7.25;1.90;;;29.50;99.90;;;;;;4957604;28;20227;-88
2021/12/17 05:44:18;;;;;;;5.60;1.48;;;29.70;99.90;;;;;;4955427;28;20199;-91
2021/12/17 05:46:53;;;;;;;5.10;1.70;;;30.00;99.90;;;;;;4955315;29;20187;-90
2021/12/17 05:49:29;;;;;;;4.85;1.42;;;30.10;99.90;;;;;;4965261;28;20195;-88
2021/12/17 05:52:00;;;;;;;8.85;1.50;;;30.30;99.90;;;;;;4960861;28;20228;-90
2021/12/17 05:54:32;;;;;;;5.43;1.30;;;30.30;99.90;;;;;;4954583;29;20652;-89
2021/12/17 05:57:04;;;;;;;7.22;1.55;;;30.40;99.90;;;;;;4956959;28;20207;-89
2021/12/17 05:59:36;;;;;;;4.20;1.63;;;30.50;99.90;;;;;;4960086;28;20216;-88
2021/12/17 06:02:11;;;;;;;6.78;1.35;;;30.50;99.90;;;;;;4954769;28;20196;-89
2021/12/17 06:04:43;;;;;;;6.60;1.48;;;30.50;99.90;;;;;;4948405;28;20686;-88
2021/12/17 06:07:15;;;;;;;8.63;1.90;;;30.60;99.90;;;;;;4951262;28;20291;-88
2021/12/17 06:09:46;;;;;;;6.22;1.45;;;30.50;99.90;;;;;;4944754;28;20215;-88
2021/12/17 06:12:18;;;;;;;10.13;1.90;;;30.30;99.90;;;;;;4942644;28;20224;-88
2021/12/17 06:14:49;;;;;;;5.60;1.63;;;30.20;99.90;;;;;;4952952;29;20227;-89
2021/12/17 06:17:21;;;;;;;5.38;1.50;;;30.20;99.90;;;;;;4954878;28;20204;-89
2021/12/17 06:19:56;;;;;;;6.75;1.50;;;30.20;99.90;;;;;;4972041;28;20208;-93
2021/12/17 06:22:28;;;;;;;8.05;1.63;;;29.90;99.90;;;;;;4963998;28;20203;-94
2021/12/17 06:24:59;;;;;;;5.47;1.30;;;30.10;99.90;;;;;;4957088;29;20224;-90
2021/12/17 06:27:31;;;;;;;6.22;1.60;;;30.20;99.90;;;;;;4947577;28;20722;-89
2021/12/17 06:30:02;;;;;;;5.28;1.65;;;30.20;99.90;;;;;;4932181;28;20216;-87
2021/12/17 06:32:34;;;;;;;5.47;1.27;;;30.40;99.90;;;;;;4951744;28;20545;-88
2021/12/17 06:35:08;;;;;;;6.00;1.60;;;30.60;99.90;;;;;;4945042;28;20299;-88
2021/12/17 06:37:40;;;;;;;5.15;1.40;;;30.80;99.90;;;;;;4948471;29;20286;-88
2021/12/17 06:40:13;;;;;;;6.70;1.30;;;30.90;99.90;;;;;;4944364;28;20228;-87
2021/12/17 06:42:45;;;;;;;9.30;1.70;;;30.90;99.90;;;;;;4942827;28;20312;-88
2021/12/17 06:45:25;;;;;;;9.32;1.85;;;31.40;99.90;;;;;;5018065;23;20236;-89
2021/12/17 06:47:58;;;;;;;4.15;1.40;;;31.90;99.90;;;;;;4994962;28;20225;-88
2021/12/17 06:59:09;;;;;;;8.98;1.67;;;32.30;99.90;;;;;;4990384;28;20237;-89
2021/12/17 07:10:14;;;;;;;6.18;1.67;;;33.00;99.90;;;;;;5001449;28;20864;-94
2021/12/17 07:19:28;;;;;;;7.07;1.80;;;33.80;99.90;;;;;;4997692;28;20229;-93
2021/12/17 07:22:03;;;;;;;3.85;1.60;;;33.40;99.90;;;;;;4996689;28;20207;-93
2021/12/17 07:33:03;;;;;;;7.15;1.50;;;33.30;99.90;;;;;;5022404;28;20182;-95
2021/12/17 07:35:44;;;;;;;5.13;1.70;;;33.00;99.90;;;;;;5040378;28;20204;-88
2021/12/17 07:41:08;;;;;;;3.83;1.42;;;32.90;99.90;;;;;;5020618;28;20189;-95
2021/12/17 07:43:40;;;;;;;4.57;1.40;;;32.70;99.90;;;;;;5018980;28;20233;-88
2021/12/17 07:46:17;;;;;;;3.92;1.70;;;32.40;99.90;;;;;;4999934;28;20222;-93
2021/12/17 07:48:49;;;;;;;5.55;1.35;;;32.30;99.90;;;;;;5001248;28;20278;-92
2021/12/17 07:51:24;;;;;;;4.78;1.55;;;32.30;99.90;;;;;;5001710;28;20238;-89
2021/12/17 07:53:56;;;;;;;5.32;1.50;;;32.10;99.90;;;;;;4982352;28;20214;-91
2021/12/17 07:56:37;;;;;;;6.05;1.50;;;32.00;99.90;;;;;;4980600;28;20256;-91
2021/12/17 07:59:08;;;;;;;7.40;1.70;;;31.70;99.90;;;;;;4989578;28;20569;-90
2021/12/17 08:01:41;;;;;;;3.88;1.25;;;31.40;99.90;;;;;;4999049;28;20218;-93
2021/12/17 08:04:14;;;;;;;7.65;1.88;;;31.00;99.90;;;;;;4997240;28;20187;-90
2021/12/17 08:06:46;;;;;;;4.82;1.40;;;30.70;99.90;;;;;;4996338;28;20191;-91
2021/12/17 08:09:18;;;;;;;6.75;1.60;;;30.20;99.90;;;;;;4993071;28;20207;-91
2021/12/17 08:11:55;;;;;;;6.05;1.48;;;29.70;99.90;;;;;;4979398;28;20222;-92
2021/12/17 08:14:29;;;;;;;4.30;1.63;;;29.30;99.90;;;;;;5018321;28;20210;-92
2021/12/17 08:17:12;;;;;;;8.68;1.60;;;28.80;99.90;;;;;;5002560;28;20209;-92
2021/12/17 08:25:17;;;;;;;6.10;1.60;;;27.60;99.90;;;;;;4997713;28;20275;-92
2021/12/17 08:28:03;;;;;;;6.75;1.95;;;27.30;99.90;;;;;;4979761;28;20219;-90
2021/12/17 08:30:40;;;;;;;5.90;1.70;;;27.00;99.90;;;;;;4959443;28;20772;-91
2021/12/17 08:33:12;;;;;;;4.05;1.60;;;26.80;99.90;;;;;;4987007;28;20232;-91
2021/12/17 08:35:44;;;;;;;4.13;1.52;;;26.60;99.90;;;;;;4994154;28;20229;-93
2021/12/17 08:38:19;;;;;;;5.68;1.65;;;26.50;99.90;;;;;;4997019;28;20650;-93
2021/12/17 08:40:51;;;;;;;8.57;1.70;;;26.30;99.90;;;;;;4995934;28;20218;-92
2021/12/17 08:43:26;;;;;;;4.28;1.60;;;26.20;99.90;;;;;;4997412;28;20226;-88
2021/12/17 08:45:57;;;;;;;6.30;1.80;;;26.10;99.90;;;;;;4963581;28;20214;-92
2021/12/17 08:48:28;;;;;;;5.32;1.55;;;26.00;99.90;;;;;;4978925;28;20203;-87
2021/12/17 08:50:59;;;;;;;9.40;2.03;;;25.80;99.90;;;;;;5009739;28;20249;-89
2021/12/17 08:53:30;;;;;;;7.43;1.63;;;25.70;99.90;;;;;;5002301;28;20207;-89
2021/12/17 08:56:02;;;;;;;9.65;1.77;;;25.60;99.90;;;;;;4978750;28;20204;-89
2021/12/17 08:58:35;;;;;;;4.55;1.80;;;25.50;99.90;;;;;;4983582;28;20182;-89
2021/12/17 09:01:06;;;;;;;7.10;1.60;;;25.40;99.90;;;;;;4981762;28;20595;-92
2021/12/17 09:03:41;;;;;;;5.05;1.80;;;25.30;99.90;;;;;;4997458;28;20206;-93
2021/12/17 09:06:12;;;;;;;6.47;1.80;;;25.30;99.90;;;;;;4963850;28;20202;-88
2021/12/17 09:08:43;;;;;;;4.72;1.80;;;25.20;99.90;;;;;;5004866;28;20197;-90
2021/12/17 09:11:14;;;;;;;6.65;2.30;;;25.10;99.90;;;;;;4979808;28;20281;-89
2021/12/17 09:13:46;;;;;;;7.13;2.10;;;25.10;99.90;;;;;;4999420;28;20202;-90
2021/12/17 09:16:17;;;;;;;6.55;1.65;;;25.10;99.90;;;;;;4994675;28;20249;-90
2021/12/17 09:18:47;;;;;;;6.93;2.20;;;25.10;99.90;;;;;;4995714;28;20195;-90
2021/12/17 09:21:20;;;;;;;5.97;2.10;;;25.00;99.90;;;;;;4995753;28;20265;-88
2021/12/17 09:23:51;;;;;;;7.57;2.10;;;25.00;99.90;;;;;;4978709;28;20195;-90
2021/12/17 09:26:23;;;;;;;9.93;1.83;;;24.90;99.90;;;;;;5017497;28;20225;-89
2021/12/17 09:28:58;;;;;;;7.82;1.88;;;25.00;99.90;;;;;;5024422;28;20221;-92
2021/12/17 09:31:32;;;;;;;5.85;1.52;;;24.90;99.90;;;;;;5022314;28;20290;-89
2021/12/17 09:34:05;;;;;;;5.15;1.45;;;24.80;99.90;;;;;;5015002;28;20724;-89
2021/12/17 09:36:37;;;;;;;7.70;1.75;;;24.80;99.90;;;;;;5008860;28;20231;-91
2021/12/17 09:39:10;;;;;;;6.20;1.65;;;24.70;99.90;;;;;;5008399;28;20186;-92
2021/12/17 09:41:46;;;;;;;6.78;1.65;;;24.80;99.90;;;;;;5008076;28;20206;-90
2021/12/17 09:44:21;;;;;;;6.80;1.67;;;24.70;99.90;;;;;;5015700;28;20244;-90
2021/12/17 09:46:57;;;;;;;4.65;1.50;;;24.60;99.90;;;;;;5024832;28;20252;-92
2021/12/17 09:49:30;;;;;;;7.43;1.58;;;24.60;99.90;;;;;;5026198;28;20209;-93
2021/12/17 09:52:10;;;;;;;6.75;1.60;;;24.50;99.90;;;;;;5013902;28;20222;-93
2021/12/17 09:54:46;;;;;;;4.95;1.75;;;24.50;99.90;;;;;;5010966;28;20210;-94
2021/12/17 09:57:21;;;;;;;4.90;1.70;;;24.50;99.90;;;;;;4993941;28;20202;-94
2021/12/17 09:59:57;;;;;;;6.65;1.60;;;24.50;99.90;;;;;;5023468;28;20201;-93
2021/12/17 10:02:28;;;;;;;8.80;1.80;;;24.50;99.90;;;;;;5028651;28;20232;-91
2021/12/17 10:05:01;;;;;;;6.32;1.70;;;24.40;99.90;;;;;;5044916;28;20206;-89
2021/12/17 10:07:38;;;;;;;5.93;1.90;;;24.40;99.90;;;;;;5036349;28;20185;-92
2021/12/17 10:20:31;;;;;;;8.50;2.08;;;24.30;99.90;;;;;;5020380;28;20230;-96
2021/12/17 10:23:04;;;;;;;6.10;2.00;;;24.30;99.90;;;;;;5014325;28;20286;-95
2021/12/17 10:25:38;;;;;;;5.47;1.60;;;24.30;99.90;;;;;;5006309;28;20228;-93
2021/12/17 10:28:11;;;;;;;7.43;2.00;;;24.30;99.90;;;;;;5009371;28;20186;-95
2021/12/17 10:30:45;;;;;;;8.98;1.88;;;24.30;99.90;;;;;;5009306;28;20187;-93
2021/12/17 10:33:19;;;;;;;7.22;2.20;;;24.20;99.90;;;;;;4994079;28;20231;-94
2021/12/17 10:36:05;;;;;;;5.88;1.65;;;24.00;99.90;;;;;;5004753;28;20290;-95
2021/12/17 10:38:41;;;;;;;4.13;1.83;;;24.10;99.90;;;;;;5006621;28;20222;-92
2021/12/17 10:47:08;;;;;;;8.55;2.20;;;24.10;99.90;;;;;;4989306;28;20203;-96
2021/12/17 10:49:57;;;;;;;10.70;2.20;;;24.10;99.90;;;;;;4985454;28;20229;-96
2021/12/17 10:52:36;;;;;;;9.63;2.00;;;24.00;99.90;;;;;;5005105;28;20230;-94
2021/12/17 10:55:17;;;;;;;9.00;1.90;;;23.90;99.90;;;;;;4996358;28;20253;-94
2021/12/17 10:57:53;;;;;;;6.15;1.67;;;23.90;99.90;;;;;;4995514;28;20570;-93
2021/12/17 11:00:24;;;;;;;6.70;1.92;;;23.90;99.90;;;;;;4995120;28;20209;-95
2021/12/17 11:02:57;;;;;;;6.93;2.13;;;23.90;99.90;;;;;;4995485;28;20219;-92
2021/12/17 11:05:29;;;;;;;7.65;2.05;;;23.90;99.90;;;;;;5005720;28;20692;-96
2021/12/17 11:08:04;;;;;;;7.45;2.03;;;23.90;99.90;;;;;;5000481;28;20249;-93
2021/12/17 11:10:36;;;;;;;6.60;1.70;;;23.90;99.90;;;;;;5001060;28;20222;-92
2021/12/17 11:13:18;;;;;;;6.57;1.70;;;23.90;99.90;;;;;;4993945;28;20383;-89
2021/12/17 11:15:49;;;;;;;8.90;2.03;;;23.90;99.90;;;;;;4992588;28;20215;-94
2021/12/17 11:18:22;;;;;;;9.05;2.20;;;23.90;99.90;;;;;;4982425;28;20250;-94
2021/12/17 11:21:17;;;;;;;6.43;1.83;;;23.80;99.90;;;;;;5013799;28;20297;-93
2021/12/17 11:24:00;;;;;;;6.30;1.73;;;23.90;99.90;;;;;;5020984;28;20210;-92
2021/12/17 11:26:32;;;;;;;6.38;1.88;;;23.80;99.90;;;;;;5000858;28;20203;-94
2021/12/17 11:29:04;;;;;;;11.25;2.50;;;23.70;99.90;;;;;;4980713;28;20199;-93
2021/12/17 11:31:36;;;;;;;7.30;1.98;;;23.70;99.90;;;;;;4997805;28;20222;-92
2021/12/17 11:34:09;;;;;;;6.97;1.80;;;23.70;99.90;;;;;;5015026;28;20210;-93
2021/12/17 11:36:41;;;;;;;7.85;1.85;;;23.60;99.90;;;;;;5016431;28;20233;-92
2021/12/17 11:39:25;;;;;;;9.07;2.10;;;23.60;99.90;;;;;;5016253;28;20273;-93
2021/12/17 11:42:09;;;;;;;7.63;1.77;;;23.70;99.90;;;;;;5016580;28;20669;-93
2021/12/17 11:44:51;;;;;;;6.95;1.88;;;23.60;99.90;;;;;;5014464;28;20190;-93
2021/12/17 11:47:35;;;;;;;6.63;1.77;;;23.60;99.90;;;;;;5024683;28;20236;-93
2021/12/17 11:50:10;;;;;;;8.70;2.00;;;23.60;99.90;;;;;;5016828;28;20282;-93
2021/12/17 11:52:46;;;;;;;10.13;2.03;;;23.60;99.90;;;;;;5015474;28;20221;-93
2021/12/17 11:55:38;;;;;;;9.50;1.73;;;23.60;99.90;;;;;;5008261;28;20226;-92
2021/12/17 11:58:14;;;;;;;9.90;2.20;;;23.60;99.90;;;;;;4980004;28;20234;-92
2021/12/17 12:00:54;;;;;;;9.50;2.10;;;23.60;99.90;;;;;;5014066;28;20209;-93
2021/12/17 12:03:27;;;;;;;5.93;1.80;;;23.60;99.90;;;;;;4999701;28;20203;-93
2021/12/17 12:05:59;;;;;;;8.73;2.00;;;23.60;99.90;;;;;;4998589;28;20208;-92
2021/12/17 12:08:46;;;;;;;6.00;2.15;;;23.60;99.90;;;;;;4998307;28;20206;-90
2021/12/17 12:11:24;;;;;;;5.63;2.00;;;23.60;99.90;;;;;;4990770;28;20197;-92
2021/12/17 12:13:57;;;;;;;7.15;2.00;;;23.60;99.90;;;;;;5016578;28;20182;-93
2021/12/17 12:16:30;;;;;;;8.02;1.90;;;23.60;99.90;;;;;;5019683;28;20170;-92
2021/12/17 12:19:11;;;;;;;6.57;1.60;;;23.60;99.90;;;;;;5017166;28;20260;-91
2021/12/17 12:21:43;;;;;;;6.88;1.88;;;23.50;99.90;;;;;;4999260;28;20564;-90
2021/12/17 12:24:17;;;;;;;8.63;2.05;;;23.50;99.90;;;;;;4986638;28;20215;-92
2021/12/17 12:26:51;;;;;;;5.60;2.00;;;23.50;99.90;;;;;;4976734;28;20262;-92
2021/12/17 12:29:23;;;;;;;6.65;2.00;;;23.50;99.90;;;;;;4977658;28;20207;-92
2021/12/17 12:32:20;;;;;;;5.00;1.70;;;23.50;99.90;;;;;;4987224;28;20269;-91
2021/12/17 12:34:53;;;;;;;6.82;2.10;;;23.40;99.90;;;;;;4993066;28;20241;-91
2021/12/17 12:37:30;;;;;;;9.75;1.98;;;23.40;99.90;;;;;;5000444;28;20190;-91
2021/12/17 12:40:21;;;;;;;12.40;2.50;;;23.40;99.90;;;;;;5016979;28;20272;-93
2021/12/17 12:42:57;;;;;;;7.75;1.98;;;23.40;99.90;;;;;;4985366;28;20254;-93
2021/12/17 12:45:34;;;;;;;7.72;1.90;;;23.30;99.90;;;;;;4980982;28;20192;-92
2021/12/17 12:48:07;;;;;;;7.82;1.90;;;23.30;99.90;;;;;;4985124;28;20206;-91
2021/12/17 12:50:38;;;;;;;5.90;1.70;;;23.40;99.90;;;;;;4978925;28;20712;-92
2021/12/17 12:53:11;;;;;;;6.97;1.77;;;23.30;99.90;;;;;;4995587;28;20704;-92
2021/12/17 12:55:48;;;;;;;6.18;2.03;;;23.30;99.90;;;;;;4994664;28;20274;-92
2021/12/17 12:58:27;;;;;;;4.18;1.60;;;23.30;99.90;;;;;;4995490;28;20229;-93
2021/12/17 13:01:02;;;;;;;6.32;1.95;;;23.30;99.90;;;;;;4987973;28;20217;-92
2021/12/17 13:03:37;;;;;;;7.28;1.65;;;23.30;99.90;;;;;;4984294;28;20206;-89
2021/12/17 13:06:15;;;;;;;7.03;1.73;;;23.30;99.90;;;;;;4989563;28;20629;-90
2021/12/17 13:08:46;;;;;;;6.68;1.83;;;23.30;99.90;;;;;;4995341;28;20297;-90
2021/12/17 13:11:18;;;;;;;7.15;1.73;;;23.30;99.90;;;;;;4996889;28;20199;-93
2021/12/17 13:13:55;;;;;;;3.63;1.92;;;23.20;99.90;;;;;;4995386;28;20265;-91
2021/12/17 13:16:38;;;;;;;7.82;2.38;;;23.20;99.90;;;;;;4995837;28;20777;-94
2021/12/17 13:22:24;;;;;;;7.15;1.90;;;23.20;99.90;;;;;;4996795;28;20205;-90
2021/12/17 13:24:53;;;;;;;5.93;1.80;;;23.20;99.90;;;;;;4994949;28;20212;-90
2021/12/17 13:27:25;;;;;;;9.57;2.13;;;23.20;99.90;;;;;;4993108;28;20199;-92
2021/12/17 13:30:03;;;;;;;6.57;1.67;;;23.30;99.90;;;;;;4997097;28;20210;-91
2021/12/17 13:32:34;;;;;;;4.57;1.83;;;23.30;99.90;;;;;;4999852;28;20214;-92
2021/12/17 13:35:05;;;;;;;5.25;1.80;;;23.30;99.90;;;;;;5005424;28;20258;-91
2021/12/17 13:37:37;;;;;;;4.63;1.77;;;23.20;99.90;;;;;;5014150;28;20609;-92
2021/12/17 13:40:09;;;;;;;7.55;1.85;;;23.20;99.90;;;;;;5015875;28;20225;-91
2021/12/17 13:42:43;;;;;;;8.43;1.80;;;23.10;99.90;;;;;;5014268;28;20257;-91
2021/12/17 13:45:19;;;;;;;10.88;2.00;;;23.10;99.90;;;;;;5015282;28;20202;-92
2021/12/17 13:47:54;;;;;;;5.95;1.73;;;23.10;99.90;;;;;;5014401;28;20213;-91
2021/12/17 13:50:28;;;;;;;6.70;1.98;;;23.10;99.90;;;;;;4994238;28;20657;-91
2021/12/17 13:53:01;;;;;;;6.88;2.03;;;23.00;99.90;;;;;;4995065;28;20226;-91
2021/12/17 13:55:34;;;;;;;4.95;1.58;;;23.00;99.90;;;;;;5013187;28;20190;-90
2021/12/17 13:58:10;;;;;;;4.95;1.85;;;23.00;99.90;;;;;;5024574;28;20206;-92
2021/12/17 14:00:47;;;;;;;8.02;2.03;;;23.00;99.90;;;;;;5013935;28;20641;-88
2021/12/17 14:03:21;;;;;;;7.05;1.80;;;23.00;99.90;;;;;;5006156;28;20190;-96
2021/12/17 14:06:01;;;;;;;4.72;1.70;;;23.00;99.90;;;;;;5011361;28;20279;-92
2021/12/17 14:08:32;;;;;;;4.70;1.80;;;23.00;99.90;;;;;;5012680;28;20576;-89
2021/12/17 14:11:02;;;;;;;5.88;1.73;;;23.00;99.90;;;;;;5008467;28;20623;-88
2021/12/17 14:13:33;;;;;;;6.03;1.67;;;22.90;99.90;;;;;;5011114;28;20226;-86
2021/12/17 14:16:06;;;;;;;5.32;1.85;;;22.90;99.90;;;;;;5011028;28;20248;-85
2021/12/17 14:18:36;;;;;;;5.25;1.48;;;22.90;99.90;;;;;;5007747;28;20194;-86
2021/12/17 14:21:08;;;;;;;5.97;1.90;;;22.90;99.90;;;;;;5010691;28;20311;-87
2021/12/17 14:23:43;;;;;;;5.22;1.70;;;22.90;99.90;;;;;;4980104;28;20269;-87
2021/12/17 14:26:14;;;;;;;5.47;1.85;;;22.90;99.90;;;;;;4991955;28;20216;-86
2021/12/17 14:28:45;;;;;;;6.00;1.90;;;22.90;99.90;;;;;;4995816;28;20206;-88
2021/12/17 14:31:20;;;;;;;6.05;2.03;;;22.80;99.90;;;;;;4992721;28;20202;-89
2021/12/17 14:33:54;;;;;;;6.18;1.75;;;22.80;99.90;;;;;;5001856;28;20216;-88
2021/12/17 14:36:31;;;;;;;8.23;1.95;;;22.90;99.90;;;;;;5011622;28;20665;-88
2021/12/17 14:39:08;;;;;;;6.82;1.85;;;22.80;99.90;;;;;;5027124;28;20177;-89
2021/12/17 14:41:44;;;;;;;5.25;1.88;;;22.80;99.90;;;;;;5011920;28;20312;-88
2021/12/17 14:44:31;;;;;;;5.53;1.75;;;22.80;99.90;;;;;;5012729;28;20227;-89
2021/12/17 14:47:15;;;;;;;6.18;1.77;;;22.70;99.90;;;;;;5012223;28;20289;-89
2021/12/17 15:01:35;;;;;;;7.57;1.75;;;22.70;99.90;;;;;;5012226;28;20209;-88
2021/12/17 15:04:10;;;;;;;6.63;1.70;;;22.70;99.90;;;;;;4996259;28;20301;-89
2021/12/17 15:06:42;;;;;;;8.30;1.80;;;22.70;99.90;;;;;;5011656;28;20743;-88
2021/12/17 15:09:14;;;;;;;6.05;1.90;;;22.60;99.90;;;;;;5012286;28;20198;-89
2021/12/17 15:11:46;;;;;;;6.95;1.75;;;22.60;99.90;;;;;;5027486;28;20194;-86
2021/12/17 15:14:18;;;;;;;5.93;1.60;;;22.60;99.90;;;;;;5026926;28;20543;-88
2021/12/17 15:16:49;;;;;;;2.97;1.50;;;22.60;99.90;;;;;;5011610;28;20194;-88
2021/12/17 15:25:58;;;;;;;5.68;1.90;;;22.50;99.90;;;;;;4999851;28;20378;-88
2021/12/17 15:28:29;;;;;;;6.57;1.80;;;22.50;99.90;;;;;;5010601;28;20240;-88
2021/12/17 15:31:02;;;;;;;7.35;2.03;;;22.50;99.90;;;;;;4994456;28;20202;-88
2021/12/17 15:33:33;;;;;;;5.88;1.55;;;22.50;99.90;;;;;;5011063;28;20230;-88
2021/12/17 15:36:09;;;;;;;6.00;1.77;;;22.50;99.90;;;;;;5011112;28;20549;-88
2021/12/17 15:38:39;;;;;;;7.43;2.10;;;22.40;99.90;;;;;;5000151;28;20214;-84
2021/12/17 15:41:10;;;;;;;6.18;1.88;;;22.40;99.90;;;;;;5003470;28;20253;-84
2021/12/17 15:43:41;;;;;;;7.22;2.10;;;22.30;99.90;;;;;;5009685;28;20206;-84
2021/12/17 15:46:12;;;;;;;7.00;1.90;;;22.30;99.90;;;;;;5008036;28;20580;-83
2021/12/17 15:48:42;;;;;;;6.93;2.08;;;22.30;99.90;;;;;;5007924;28;20274;-84
2021/12/17 15:51:15;;;;;;;8.32;2.00;;;22.20;99.90;;;;;;5006968;28;20198;-84
2021/12/17 15:53:46;;;;;;;7.72;1.90;;;22.20;99.90;;;;;;5013603;28;20672;-83
2021/12/17 15:56:16;;;;;;;4.57;1.70;;;22.20;99.90;;;;;;5012432;28;20194;-83
2021/12/17 15:58:47;;;;;;;5.80;1.90;;;22.20;99.90;;;;;;5013685;28;20190;-83
2021/12/17 16:01:18;;;;;;;9.43;2.25;;;22.10;99.90;;;;;;5013036;28;20218;-84
2021/12/17 16:03:49;;;;;;;5.70;2.00;;;22.10;99.90;;;;;;5013275;28;20186;-85
2021/12/17 16:06:23;;;;;;;8.60;2.35;;;22.10;99.90;;;;;;5012549;28;20198;-84
2021/12/17 16:08:57;;;;;;;3.17;1.52;;;22.10;99.90;;;;;;5012620;28;20283;-84
2021/12/17 16:11:53;;;;;;;6.43;2.03;;;22.10;99.90;;;;;;5009722;28;20303;-84
2021/12/17 16:22:45;;;;;;;8.20;2.10;;;22.00;99.90;;;;;;5013371;28;20253;-84
2021/12/17 16:25:16;;;;;;;6.32;1.90;;;22.00;99.90;;;;;;5012813;28;20198;-84
2021/12/17 16:27:47;;;;;;;7.25;2.05;;;22.00;99.90;;;;;;5016517;28;20221;-84
2021/12/17 16:30:18;;;;;;;8.10;2.00;;;21.90;99.90;;;;;;5026065;28;20201;-84